Arenas Valley, New Mexico
Current Conditions -  °F | °C
As of 11:35 PM on Sunday 23 Nov 2014 (Local Time) from KSVC Reporting Station
Clear Clear  
Wind Chill: 14°   Ceiling: Unl
Heat Index: 25°   Visibility: 10mi
Dew Point:   Wind: 12mph
Humidity: 34%   Direction: 310°NW
Pressure: 30.14"   Gusts: NA
Location:  32.79°N, 108.18°W
Report Text: KSVC 240635Z AUTO 31010KT 10SM CLR M04/M18 A3014 RMK AO2
Loading
Personal Weather Stations






























Interactive Weather Map New forecast layout! Learn more

10-Day Weather Forecast

Advertisements
Track Severe Weather on mobile